Time;durP1;ratioP1;P1;durP2;ratioP2;P2;SDS_P1;SDS_P2;PMS_P1;PMS_P2;Temp;Humidity;BMP_temperature;BMP_pressure;BME280_temperature;BME280_humidity;BME280_pressure;Samples;Min_cycle;Max_cycle;Signal;HPM_P1;HPM_P2
2022/06/21 00:00:45;;;;;;;3.15;1.58;;;15.20;99.90;;;;;;5011006;28;20100;-72
2022/06/21 00:03:15;;;;;;;1.27;1.17;;;15.20;99.90;;;;;;5012349;28;20558;-72
2022/06/21 00:05:44;;;;;;;1.67;1.20;;;15.10;99.90;;;;;;5010809;28;20034;-72
2022/06/21 00:08:24;;;;;;;2.20;1.30;;;15.10;99.90;;;;;;5008816;28;20088;-71
2022/06/21 00:10:51;;;;;;;1.65;1.15;;;15.10;99.90;;;;;;5008283;28;20037;-72
2022/06/21 00:13:23;;;;;;;1.60;1.27;;;15.10;99.90;;;;;;5004973;28;20088;-71
2022/06/21 00:15:53;;;;;;;1.10;1.00;;;15.10;99.90;;;;;;4993292;28;20034;-72
2022/06/21 00:18:21;;;;;;;1.45;1.17;;;15.00;99.90;;;;;;5009602;28;20022;-73
2022/06/21 00:20:48;;;;;;;1.52;1.27;;;15.00;99.90;;;;;;4998834;28;20026;-73
2022/06/21 00:23:23;;;;;;;1.95;1.65;;;14.90;99.90;;;;;;4998247;28;20038;-72
2022/06/21 00:25:50;;;;;;;2.83;1.40;;;14.90;99.90;;;;;;5003290;28;20034;-72
2022/06/21 00:28:17;;;;;;;2.45;1.10;;;14.90;99.90;;;;;;5011000;28;20026;-72
2022/06/21 00:30:46;;;;;;;1.55;1.00;;;14.90;99.90;;;;;;4992478;28;20402;-73
2022/06/21 00:33:14;;;;;;;1.17;1.00;;;14.80;99.90;;;;;;4993730;28;20080;-72
2022/06/21 00:35:42;;;;;;;1.45;1.05;;;14.80;99.90;;;;;;4991900;28;20101;-72
2022/06/21 00:38:28;;;;;;;1.63;1.30;;;14.80;99.90;;;;;;5003368;28;20038;-72
2022/06/21 00:40:56;;;;;;;1.67;1.38;;;14.80;99.90;;;;;;5012758;28;20025;-71
2022/06/21 00:43:26;;;;;;;2.05;1.30;;;14.70;99.90;;;;;;5012028;28;20413;-72
2022/06/21 00:45:52;;;;;;;1.65;1.40;;;14.70;99.90;;;;;;5005809;28;20030;-72
2022/06/21 00:48:24;;;;;;;2.05;1.20;;;14.70;99.90;;;;;;5002417;28;20101;-72
2022/06/21 00:51:14;;;;;;;1.33;1.20;;;14.60;99.90;;;;;;5002686;28;20034;-72
2022/06/21 00:53:42;;;;;;;;;;;14.60;99.90;;;;;;5010676;28;20030;-71
2022/06/21 00:56:15;;;;;;;2.15;1.50;;;14.60;99.90;;;;;;5010028;28;20411;-72
2022/06/21 00:58:40;;;;;;;1.98;1.42;;;14.50;99.90;;;;;;4993178;28;20046;-73
2022/06/21 01:01:20;;;;;;;3.75;1.40;;;14.50;99.90;;;;;;5010120;28;20038;-72
2022/06/21 01:03:52;;;;;;;2.28;1.38;;;14.50;99.90;;;;;;4995176;28;20041;-73
2022/06/21 01:06:27;;;;;;;1.15;1.08;;;14.50;99.90;;;;;;4990818;28;20061;-72
2022/06/21 01:09:01;;;;;;;1.50;1.17;;;14.50;99.90;;;;;;5001483;28;20030;-72
2022/06/21 01:11:33;;;;;;;2.53;1.33;;;14.40;99.90;;;;;;5010023;28;20045;-72
2022/06/21 01:14:00;;;;;;;1.45;1.30;;;14.40;99.90;;;;;;5012049;28;20395;-72
2022/06/21 01:16:28;;;;;;;2.65;1.30;;;14.40;99.90;;;;;;5011857;28;20037;-72
2022/06/21 01:18:54;;;;;;;2.20;1.33;;;14.40;99.90;;;;;;5014703;28;20062;-71
2022/06/21 01:21:20;;;;;;;1.90;1.75;;;14.40;99.90;;;;;;5006964;28;20035;-71
2022/06/21 01:24:04;;;;;;;1.48;1.23;;;14.40;99.90;;;;;;5011381;28;20029;-72
2022/06/21 01:27:01;;;;;;;2.45;1.25;;;14.40;99.90;;;;;;5001330;28;20030;-72
2022/06/21 01:29:30;;;;;;;3.95;1.20;;;14.40;99.90;;;;;;5013095;28;20046;-71
2022/06/21 01:32:00;;;;;;;2.67;1.45;;;14.40;99.90;;;;;;5014420;28;20533;-72
2022/06/21 01:34:27;;;;;;;2.45;1.60;;;14.30;99.90;;;;;;5017362;28;20022;-72
2022/06/21 01:37:15;;;;;;;1.50;1.20;;;14.30;99.90;;;;;;5015983;28;20034;-71
2022/06/21 01:40:12;;;;;;;1.33;1.17;;;14.30;99.90;;;;;;5014852;28;20486;-72
2022/06/21 01:42:44;;;;;;;2.35;1.42;;;14.30;99.90;;;;;;5007894;28;20037;-71
2022/06/21 01:45:15;;;;;;;2.10;1.30;;;14.20;99.90;;;;;;4990116;28;20426;-72
2022/06/21 01:47:49;;;;;;;;;;;14.20;99.90;;;;;;5016407;28;20058;-72
2022/06/21 01:50:16;;;;;;;2.17;1.40;;;14.20;99.90;;;;;;5015298;28;19910;-71
2022/06/21 01:52:45;;;;;;;1.48;1.35;;;14.10;99.90;;;;;;5010210;28;20083;-71
2022/06/21 01:55:18;;;;;;;2.42;1.25;;;14.10;99.90;;;;;;5007199;28;20038;-72
2022/06/21 01:57:45;;;;;;;3.95;1.50;;;14.20;99.90;;;;;;4996515;28;20049;-71
2022/06/21 02:00:11;;;;;;;3.88;1.40;;;14.20;99.90;;;;;;5002414;28;20029;-71
2022/06/21 02:02:41;;;;;;;1.35;1.25;;;14.20;99.90;;;;;;5007302;28;20121;-71
2022/06/21 02:05:16;;;;;;;4.80;1.33;;;14.20;99.90;;;;;;4994779;28;20392;-71
2022/06/21 02:07:52;;;;;;;2.47;1.33;;;14.20;99.90;;;;;;4995985;28;20073;-72
2022/06/21 02:10:34;;;;;;;3.28;1.63;;;14.20;99.90;;;;;;5002958;28;20169;-70
2022/06/21 02:13:36;;;;;;;2.03;1.52;;;14.30;99.90;;;;;;4996182;28;20070;-70
2022/06/21 02:16:20;;;;;;;2.22;1.13;;;14.30;99.90;;;;;;5003774;28;20046;-71
2022/06/21 02:18:51;;;;;;;2.58;1.23;;;14.30;99.90;;;;;;5002323;28;20101;-71
2022/06/21 02:21:40;;;;;;;2.15;1.50;;;14.20;99.90;;;;;;5004746;28;20022;-71
2022/06/21 02:24:08;;;;;;;2.80;1.30;;;14.10;99.90;;;;;;5006494;28;20026;-71
2022/06/21 02:26:34;;;;;;;1.33;1.00;;;14.10;99.90;;;;;;5006878;28;20570;-72
2022/06/21 02:29:01;;;;;;;1.73;1.45;;;14.10;99.90;;;;;;5011198;28;20049;-71
2022/06/21 02:31:27;;;;;;;1.25;1.15;;;14.00;99.90;;;;;;4999356;28;20034;-71
2022/06/21 02:33:57;;;;;;;4.40;1.42;;;14.00;99.90;;;;;;5010154;28;20026;-71
2022/06/21 02:36:30;;;;;;;2.63;1.55;;;14.00;99.90;;;;;;4998442;28;20077;-72
2022/06/21 02:39:05;;;;;;;1.88;1.20;;;14.00;99.90;;;;;;5004284;28;20035;-72
2022/06/21 02:41:39;;;;;;;1.45;1.10;;;14.00;99.90;;;;;;5006812;28;20044;-71
2022/06/21 02:44:28;;;;;;;1.40;1.10;;;14.00;99.90;;;;;;5006141;28;20037;-71
2022/06/21 02:46:58;;;;;;;1.30;1.20;;;13.90;99.90;;;;;;5013120;28;20026;-71
2022/06/21 02:49:26;;;;;;;;;;;13.90;99.90;;;;;;5011515;28;20070;-71
2022/06/21 02:52:04;;;;;;;2.20;1.30;;;13.90;99.90;;;;;;4994869;28;20044;-71
2022/06/21 02:54:39;;;;;;;1.65;1.20;;;13.90;99.90;;;;;;5004639;28;20073;-72
2022/06/21 02:57:10;;;;;;;2.40;1.38;;;13.90;99.90;;;;;;5010257;28;20033;-72
2022/06/21 02:59:39;;;;;;;3.30;1.40;;;13.90;99.90;;;;;;5010679;28;20033;-72
2022/06/21 03:02:10;;;;;;;3.65;1.23;;;13.80;99.90;;;;;;5014197;28;20049;-71
2022/06/21 03:04:57;;;;;;;1.30;1.10;;;13.80;99.90;;;;;;5014412;28;20378;-72
2022/06/21 03:07:31;;;;;;;2.20;1.30;;;13.80;99.90;;;;;;5009121;28;20034;-71
2022/06/21 03:09:58;;;;;;;1.50;1.10;;;13.70;99.90;;;;;;5008744;28;20033;-71
2022/06/21 03:12:28;;;;;;;3.30;1.38;;;13.70;99.90;;;;;;5012177;28;20037;-72
2022/06/21 03:14:57;;;;;;;1.67;1.10;;;13.70;99.90;;;;;;5004256;28;20030;-71
2022/06/21 03:17:31;;;;;;;2.85;1.23;;;13.70;99.90;;;;;;5004589;28;20972;-72
2022/06/21 03:19:56;;;;;;;2.65;1.45;;;13.70;99.90;;;;;;5012483;28;20026;-72
2022/06/21 03:22:31;;;;;;;2.10;1.30;;;13.70;99.90;;;;;;5013776;28;20502;-72
2022/06/21 03:24:59;;;;;;;2.08;1.25;;;13.70;99.90;;;;;;5014120;28;20029;-71
2022/06/21 03:27:35;;;;;;;3.53;1.40;;;13.70;99.90;;;;;;4996207;28;20110;-71
2022/06/21 03:30:02;;;;;;;1.63;1.00;;;13.70;99.90;;;;;;4979512;28;20046;-72
2022/06/21 03:32:33;;;;;;;3.28;1.40;;;13.60;99.90;;;;;;4980668;28;20076;-70
2022/06/21 03:34:59;;;;;;;2.40;1.13;;;13.70;99.90;;;;;;4991890;28;20434;-71
2022/06/21 03:37:26;;;;;;;4.72;1.40;;;13.70;99.90;;;;;;4988046;28;20026;-72
2022/06/21 03:42:42;;;;;;;2.60;1.30;;;13.70;99.90;;;;;;4988169;28;20182;-71
2022/06/21 03:45:23;;;;;;;2.63;1.40;;;13.70;99.90;;;;;;4987995;28;20037;-72
2022/06/21 03:48:09;;;;;;;1.38;1.15;;;13.80;99.90;;;;;;4988425;28;20110;-71
2022/06/21 03:50:43;;;;;;;1.77;1.35;;;13.90;99.90;;;;;;4975129;28;20019;-72
2022/06/21 03:53:19;;;;;;;3.30;1.42;;;14.00;99.90;;;;;;4989758;28;20034;-73
2022/06/21 03:56:10;;;;;;;4.65;1.40;;;14.00;99.90;;;;;;4978712;28;20045;-72
2022/06/21 03:58:51;;;;;;;1.98;1.08;;;14.10;99.90;;;;;;4974971;28;20035;-72
2022/06/21 04:01:41;;;;;;;2.35;1.30;;;14.20;99.90;;;;;;4976877;28;20632;-72
2022/06/21 04:04:22;;;;;;;1.48;1.10;;;14.30;99.90;;;;;;4972646;28;20037;-72
2022/06/21 04:07:23;;;;;;;1.92;1.40;;;14.40;99.90;;;;;;4968771;28;20030;-71
2022/06/21 04:09:58;;;;;;;3.17;1.30;;;14.50;99.90;;;;;;4988296;28;20033;-71
2022/06/21 04:12:28;;;;;;;1.63;1.10;;;14.60;99.90;;;;;;4992667;28;20447;-72
2022/06/21 04:15:02;;;;;;;3.83;1.65;;;14.70;99.90;;;;;;4991178;28;20141;-71
2022/06/21 04:18:13;;;;;;;2.10;1.20;;;14.70;99.90;;;;;;4993292;28;20023;-72
2022/06/21 04:21:14;;;;;;;5.45;1.10;;;14.80;99.90;;;;;;4959289;28;20118;-74
2022/06/21 04:23:43;;;;;;;3.00;1.35;;;14.90;99.90;;;;;;4949753;28;20506;-73
2022/06/21 04:26:24;;;;;;;1.70;1.23;;;15.10;99.90;;;;;;4974823;28;20030;-72
2022/06/21 04:28:53;;;;;;;;;;;15.10;99.90;;;;;;4984728;28;20056;-72
2022/06/21 04:31:31;;;;;;;3.70;1.50;;;15.30;99.90;;;;;;5010844;28;19909;-71
2022/06/21 04:34:17;;;;;;;4.00;1.50;;;15.40;99.90;;;;;;5010512;28;20034;-72
2022/06/21 04:36:50;;;;;;;2.85;1.55;;;15.50;99.90;;;;;;5011541;28;20475;-70
2022/06/21 04:39:24;;;;;;;5.35;2.00;;;15.70;99.90;;;;;;5010743;28;20403;-72
2022/06/21 04:41:57;;;;;;;3.60;1.85;;;15.80;99.90;;;;;;5007731;28;20169;-72
2022/06/21 04:44:41;;;;;;;6.90;1.83;;;15.80;99.90;;;;;;5010829;28;20037;-72
2022/06/21 04:47:34;;;;;;;2.00;1.38;;;15.90;99.90;;;;;;5009914;28;20157;-71
2022/06/21 04:50:19;;;;;;;3.55;1.70;;;16.00;99.90;;;;;;4995843;28;20054;-71
2022/06/21 04:53:01;;;;;;;4.22;1.65;;;16.10;99.90;;;;;;5008146;28;20478;-71
2022/06/21 04:55:48;;;;;;;9.77;2.08;;;16.20;99.90;;;;;;5005579;28;20026;-71
2022/06/21 04:58:14;;;;;;;4.50;1.70;;;16.20;99.90;;;;;;5015171;28;20026;-72
2022/06/21 05:00:39;;;;;;;6.78;2.25;;;16.30;99.90;;;;;;5016239;28;20022;-71
2022/06/21 05:03:22;;;;;;;2.83;1.50;;;16.30;99.90;;;;;;5005687;28;20077;-71
2022/06/21 05:05:48;;;;;;;4.82;1.63;;;16.40;99.90;;;;;;4970008;28;20386;-71
2022/06/21 05:08:20;;;;;;;4.55;1.80;;;16.40;99.90;;;;;;5010913;28;20026;-72
2022/06/21 05:10:49;;;;;;;5.13;1.77;;;16.50;99.90;;;;;;5005787;28;20058;-78
2022/06/21 05:13:24;;;;;;;3.60;1.80;;;16.60;99.90;;;;;;5010603;28;20037;-82
2022/06/21 05:15:51;;;;;;;4.68;1.98;;;16.70;99.90;;;;;;4998887;28;20033;-78
2022/06/21 05:18:26;;;;;;;5.65;1.70;;;16.70;99.90;;;;;;5014667;28;20028;-79
2022/06/21 05:20:55;;;;;;;2.70;1.75;;;16.70;99.90;;;;;;5007495;28;20026;-81
2022/06/21 05:23:23;;;;;;;7.28;1.70;;;16.80;99.90;;;;;;5014325;28;20394;-81
2022/06/21 05:25:50;;;;;;;4.00;1.70;;;16.90;99.90;;;;;;5017712;28;20026;-78
2022/06/21 05:28:32;;;;;;;5.00;1.80;;;17.00;99.90;;;;;;5017597;28;20024;-78
2022/06/21 05:31:08;;;;;;;2.40;1.55;;;17.10;99.90;;;;;;4998641;28;20484;-77
2022/06/21 05:33:43;;;;;;;7.43;1.92;;;17.20;99.90;;;;;;4997552;28;20036;-78
2022/06/21 05:36:17;;;;;;;4.53;1.67;;;17.30;99.90;;;;;;4996571;28;20364;-82
2022/06/21 05:38:58;;;;;;;4.13;1.15;;;17.40;99.90;;;;;;5011877;28;20508;-77
2022/06/21 05:41:30;;;;;;;3.47;1.75;;;17.50;99.90;;;;;;5016109;28;20081;-76
2022/06/21 05:44:08;;;;;;;2.95;1.60;;;17.60;99.90;;;;;;5015269;28;20064;-76
2022/06/21 05:46:41;;;;;;;2.63;1.40;;;17.80;99.90;;;;;;5015728;28;20038;-76
2022/06/21 05:49:23;;;;;;;4.63;1.85;;;17.90;99.90;;;;;;5001298;28;20113;-79
2022/06/21 05:51:51;;;;;;;4.10;1.58;;;18.00;99.90;;;;;;5010274;28;20030;-78
2022/06/21 05:54:20;;;;;;;5.25;2.03;;;18.20;99.90;;;;;;5018753;28;20056;-76
2022/06/21 05:56:48;;;;;;;6.97;2.20;;;18.20;99.90;;;;;;5009178;28;20403;-79
2022/06/21 05:59:17;;;;;;;5.18;2.20;;;18.20;99.90;;;;;;5016322;28;20418;-76
2022/06/21 06:01:54;;;;;;;7.37;1.70;;;18.20;99.90;;;;;;5016627;28;20042;-77
2022/06/21 06:04:38;;;;;;;5.82;1.75;;;18.10;99.90;;;;;;5010996;28;20030;-77
2022/06/21 06:07:05;;;;;;;3.08;2.05;;;18.10;99.90;;;;;;5013770;28;20108;-77
2022/06/21 06:09:38;;;;;;;5.53;1.70;;;18.10;99.90;;;;;;5025870;28;20026;-76
2022/06/21 06:12:25;;;;;;;3.65;1.65;;;18.10;99.90;;;;;;5012061;28;20410;-78
2022/06/21 06:15:03;;;;;;;3.50;1.60;;;18.10;99.90;;;;;;5011392;28;20503;-84
2022/06/21 06:17:42;;;;;;;4.05;1.77;;;18.10;99.90;;;;;;5022245;28;20045;-72
2022/06/21 06:20:19;;;;;;;4.18;1.52;;;18.20;99.90;;;;;;5023057;28;20030;-74
2022/06/21 06:22:56;;;;;;;3.08;1.40;;;18.20;99.90;;;;;;5020974;28;20065;-73
2022/06/21 06:25:30;;;;;;;5.47;1.67;;;18.30;99.90;;;;;;5006917;28;20038;-73
2022/06/21 06:28:01;;;;;;;2.47;1.60;;;18.30;99.90;;;;;;5006340;28;20032;-73
2022/06/21 06:30:34;;;;;;;2.80;1.50;;;18.30;99.90;;;;;;4989910;28;20105;-73
2022/06/21 06:33:09;;;;;;;3.25;1.48;;;18.50;99.90;;;;;;4992643;28;20479;-73
2022/06/21 06:35:35;;;;;;;3.35;1.33;;;18.60;99.90;;;;;;4987128;28;20027;-73
2022/06/21 06:38:00;;;;;;;8.82;1.80;;;18.80;99.90;;;;;;4979280;28;20472;-73
2022/06/21 06:40:37;;;;;;;2.97;1.10;;;18.90;99.50;;;;;;4991434;28;20026;-72
2022/06/21 06:43:15;;;;;;;1.83;1.15;;;19.00;99.40;;;;;;4989041;28;20043;-74
2022/06/21 06:45:42;;;;;;;3.83;1.30;;;19.10;99.30;;;;;;4983549;28;20046;-72
2022/06/21 06:48:22;;;;;;;3.53;1.52;;;19.20;99.30;;;;;;4986791;28;20511;-73
2022/06/21 06:50:59;;;;;;;3.88;1.50;;;19.30;98.80;;;;;;4992465;28;20062;-73
2022/06/21 06:53:53;;;;;;;5.53;1.40;;;19.40;97.50;;;;;;4975665;28;20034;-72
2022/06/21 06:56:26;;;;;;;3.50;1.63;;;19.60;97.20;;;;;;4973175;28;20043;-74
2022/06/21 06:58:57;;;;;;;4.65;1.30;;;19.60;96.70;;;;;;4974078;28;20117;-73
2022/06/21 07:01:39;;;;;;;3.72;1.60;;;19.50;96.50;;;;;;4975024;28;20037;-73
2022/06/21 07:04:08;;;;;;;4.63;1.70;;;19.50;96.40;;;;;;4972921;28;20034;-73
2022/06/21 07:06:49;;;;;;;3.00;1.50;;;19.60;96.70;;;;;;4981755;28;20061;-73
2022/06/21 07:09:32;;;;;;;4.53;1.40;;;19.60;96.50;;;;;;4985675;28;20379;-74
2022/06/21 07:11:58;;;;;;;3.92;1.58;;;19.70;96.10;;;;;;4991546;28;20117;-73
2022/06/21 07:14:26;;;;;;;4.35;1.52;;;19.80;95.30;;;;;;4992096;28;20452;-72
2022/06/21 07:16:57;;;;;;;6.05;1.80;;;19.90;95.30;;;;;;4990497;28;20042;-73
2022/06/21 07:19:23;;;;;;;3.85;1.52;;;20.10;95.10;;;;;;4991900;28;20038;-72
2022/06/21 07:21:48;;;;;;;5.30;1.70;;;20.30;94.60;;;;;;4992041;28;20047;-72
2022/06/21 07:24:17;;;;;;;5.22;1.83;;;20.40;93.20;;;;;;4992036;28;20546;-72
2022/06/21 07:26:47;;;;;;;5.28;1.80;;;20.60;92.20;;;;;;4983498;28;20373;-73
2022/06/21 07:29:19;;;;;;;;;;;20.90;90.70;;;;;;4979922;28;20049;-73
2022/06/21 07:31:53;;;;;;;3.58;1.70;;;21.10;90.30;;;;;;4992843;28;19917;-73
2022/06/21 07:34:30;;;;;;;4.53;1.83;;;21.20;88.50;;;;;;4993165;28;20022;-73
2022/06/21 07:37:04;;;;;;;3.22;1.70;;;21.20;87.50;;;;;;5000651;28;20434;-73
2022/06/21 07:39:48;;;;;;;2.13;1.50;;;21.40;86.80;;;;;;5007122;28;20495;-73
2022/06/21 07:42:29;;;;;;;2.30;1.33;;;21.60;84.20;;;;;;5002966;28;20125;-73
2022/06/21 07:45:06;;;;;;;8.18;2.40;;;21.60;82.50;;;;;;5011302;28;20390;-73
2022/06/21 07:47:36;;;;;;;5.38;1.67;;;21.60;82.00;;;;;;5009493;28;20038;-73
2022/06/21 07:50:17;;;;;;;3.67;1.92;;;21.60;81.70;;;;;;4997703;28;20049;-72
2022/06/21 07:52:59;;;;;;;4.75;1.67;;;21.60;80.70;;;;;;5009028;28;20033;-73
2022/06/21 07:55:39;;;;;;;5.68;1.90;;;21.60;81.00;;;;;;5001017;28;20442;-73
2022/06/21 07:58:18;;;;;;;4.95;1.95;;;21.50;80.50;;;;;;5006017;28;20037;-74
2022/06/21 08:06:43;;;;;;;6.03;1.98;;;21.40;80.40;;;;;;5011432;28;20049;-73
2022/06/21 08:09:17;;;;;;;7.20;2.03;;;21.40;80.20;;;;;;5008965;28;20912;-73
2022/06/21 08:11:46;;;;;;;4.18;1.80;;;21.40;80.20;;;;;;5011207;28;20042;-73
2022/06/21 08:14:13;;;;;;;5.32;1.98;;;21.40;80.80;;;;;;4999993;28;20606;-73
2022/06/21 08:17:04;;;;;;;2.15;1.33;;;21.50;81.80;;;;;;4993068;28;20023;-72
2022/06/21 08:19:39;;;;;;;6.25;1.73;;;21.40;81.40;;;;;;4998822;28;20030;-72
2022/06/21 08:22:16;;;;;;;3.53;1.40;;;21.40;80.80;;;;;;4992147;28;20109;-72
2022/06/21 08:24:52;;;;;;;6.03;1.48;;;21.40;81.20;;;;;;4995194;28;20032;-72
2022/06/21 08:27:30;;;;;;;4.35;1.70;;;21.40;81.10;;;;;;5010374;28;20056;-72
2022/06/21 08:30:08;;;;;;;4.85;1.88;;;21.40;81.50;;;;;;5003836;28;20049;-72
2022/06/21 08:32:45;;;;;;;7.15;1.95;;;21.50;81.90;;;;;;4993163;28;20129;-73
2022/06/21 08:35:20;;;;;;;4.22;1.80;;;21.50;81.50;;;;;;5003814;28;20036;-73
2022/06/21 08:37:59;;;;;;;7.90;2.08;;;21.60;82.30;;;;;;5009255;28;20478;-72
2022/06/21 08:40:59;;;;;;;10.50;1.80;;;21.70;81.80;;;;;;5010990;28;20033;-72
2022/06/21 08:43:45;;;;;;;4.10;1.77;;;21.70;81.10;;;;;;5003710;28;20042;-73
2022/06/21 08:46:30;;;;;;;5.25;1.58;;;21.60;81.70;;;;;;4994346;28;20037;-72
2022/06/21 08:49:46;;;;;;;8.07;1.88;;;21.70;81.60;;;;;;4996253;28;20030;-72
2022/06/21 08:52:45;;;;;;;8.35;1.90;;;21.70;80.90;;;;;;4943827;29;20111;-72
2022/06/21 08:55:46;;;;;;;3.47;1.60;;;21.70;81.20;;;;;;5004994;28;20033;-72
2022/06/21 08:58:36;;;;;;;2.60;1.45;;;21.70;81.30;;;;;;5011134;28;20113;-72
2022/06/21 09:01:16;;;;;;;7.40;2.40;;;21.60;81.20;;;;;;5010385;28;20035;-72
2022/06/21 09:03:55;;;;;;;6.40;2.17;;;21.70;81.80;;;;;;5011044;28;20045;-73
2022/06/21 09:06:44;;;;;;;3.42;1.63;;;21.70;82.50;;;;;;5011049;28;20101;-72
2022/06/21 09:09:36;;;;;;;5.40;2.35;;;21.70;84.20;;;;;;5010376;28;20147;-72
2022/06/21 09:12:13;;;;;;;5.13;1.70;;;21.60;83.20;;;;;;4994011;28;20037;-72
2022/06/21 09:15:06;;;;;;;6.03;2.15;;;21.70;82.90;;;;;;4991912;28;20085;-72
2022/06/21 09:17:35;;;;;;;3.92;1.80;;;21.80;82.80;;;;;;5001334;28;20027;-72
2022/06/21 09:20:25;;;;;;;3.90;2.10;;;22.00;82.10;;;;;;5002505;28;20348;-72
2022/06/21 09:22:57;;;;;;;6.60;2.35;;;22.30;81.60;;;;;;5010484;28;20045;-73
2022/06/21 09:25:44;;;;;;;3.67;1.80;;;22.50;80.80;;;;;;5010355;28;20081;-73
2022/06/21 09:28:50;;;;;;;4.43;1.92;;;22.70;79.50;;;;;;5000588;28;20035;-74
2022/06/21 09:31:38;;;;;;;14.95;1.90;;;22.80;79.80;;;;;;4993472;28;20070;-73
2022/06/21 09:34:10;;;;;;;4.95;1.52;;;22.90;82.40;;;;;;4993245;28;20061;-73
2022/06/21 09:36:40;;;;;;;13.32;1.90;;;23.10;82.30;;;;;;5002987;28;20172;-73
2022/06/21 09:39:30;;;;;;;10.57;1.73;;;23.30;80.10;;;;;;5013266;28;20034;-73
2022/06/21 09:42:03;;;;;;;14.25;2.15;;;23.50;82.80;;;;;;5011067;28;20049;-73
2022/06/21 09:44:37;;;;;;;6.10;2.00;;;23.60;84.30;;;;;;5012815;28;20032;-74
2022/06/21 09:47:10;;;;;;;11.57;2.05;;;23.80;84.70;;;;;;5006945;28;20033;-73
2022/06/21 09:50:07;;;;;;;6.50;2.17;;;24.00;90.20;;;;;;4994967;28;20073;-74
2022/06/21 09:52:56;;;;;;;3.55;1.73;;;24.30;91.50;;;;;;5009140;28;20138;-74
2022/06/21 09:55:44;;;;;;;4.43;2.50;;;24.50;92.40;;;;;;5002785;28;20029;-74
2022/06/21 09:58:12;;;;;;;10.88;2.20;;;24.70;92.20;;;;;;5011908;28;20045;-73
2022/06/21 10:00:43;;;;;;;8.88;2.30;;;24.80;92.00;;;;;;5012384;28;20033;-74
2022/06/21 10:03:26;;;;;;;8.20;3.22;;;24.90;92.10;;;;;;5008445;28;20142;-74
2022/06/21 10:06:19;;;;;;;7.57;2.15;;;25.00;91.70;;;;;;5007072;28;20135;-73
2022/06/21 10:08:54;;;;;;;4.57;2.10;;;24.90;91.80;;;;;;5006746;28;20085;-73
2022/06/21 10:11:31;;;;;;;5.28;1.90;;;24.90;93.80;;;;;;4993731;28;20348;-73
2022/06/21 10:14:27;;;;;;;5.72;1.83;;;24.90;94.50;;;;;;4994437;28;20037;-72
2022/06/21 10:17:07;;;;;;;7.97;2.00;;;25.00;94.30;;;;;;4996864;28;20038;-73
2022/06/21 10:19:51;;;;;;;3.92;2.08;;;25.00;94.30;;;;;;5005943;28;20038;-72
2022/06/21 10:22:28;;;;;;;7.70;2.35;;;;;;;;;;5011763;28;20145;-72
2022/06/21 10:24:56;;;;;;;4.28;2.33;;;;;;;;;;5009930;28;20025;-76
2022/06/21 10:27:36;;;;;;;6.82;2.40;;;25.20;72.50;;;;;;5014592;28;20045;-71
2022/06/21 10:30:22;;;;;;;4.65;2.50;;;25.40;72.50;;;;;;4995083;28;20050;-72
2022/06/21 10:33:16;;;;;;;6.70;2.47;;;25.50;72.20;;;;;;4993664;28;20035;-71
2022/06/21 10:35:44;;;;;;;4.43;2.17;;;25.60;72.50;;;;;;4987008;28;20049;-71
2022/06/21 10:38:43;;;;;;;2.95;1.80;;;25.70;72.20;;;;;;4993130;28;20037;-71
2022/06/21 10:41:38;;;;;;;4.72;2.08;;;25.80;73.30;;;;;;4988426;28;20038;-72
2022/06/21 10:44:44;;;;;;;7.25;2.20;;;26.00;72.60;;;;;;4991788;28;20458;-72
2022/06/21 10:47:24;;;;;;;2.60;1.90;;;26.10;73.10;;;;;;4995076;28;20090;-73
2022/06/21 10:50:16;;;;;;;4.75;2.10;;;26.30;71.90;;;;;;4993612;28;20027;-73
2022/06/21 10:52:50;;;;;;;4.28;2.10;;;26.50;72.10;;;;;;4990670;28;20065;-73
2022/06/21 10:55:30;;;;;;;4.35;2.33;;;26.60;71.10;;;;;;5005579;28;20475;-72
2022/06/21 10:58:11;;;;;;;5.47;1.90;;;26.50;71.90;;;;;;4990104;28;20443;-71
2022/06/21 11:03:56;;;;;;;5.00;1.90;;;26.60;72.80;;;;;;4998845;28;20399;-73
2022/06/21 11:06:50;;;;;;;5.75;2.47;;;26.80;83.20;;;;;;4997770;28;20019;-73
2022/06/21 11:09:20;;;;;;;4.60;2.80;;;26.90;82.70;;;;;;4998416;28;20085;-73
2022/06/21 11:15:16;;;;;;;14.50;3.10;;;27.10;71.80;;;;;;4990506;28;20509;-73
2022/06/21 11:17:48;;;;;;;12.18;2.40;;;26.90;92.80;;;;;;4985940;28;20431;-73
2022/06/21 11:20:22;;;;;;;9.02;2.78;;;;;;;;;;4992700;28;20027;-72
2022/06/21 11:22:57;;;;;;;5.78;2.17;;;;;;;;;;4993659;28;20065;-72
2022/06/21 11:25:43;;;;;;;6.13;2.45;;;;;;;;;;4992918;28;20026;-73
2022/06/21 11:28:19;;;;;;;3.47;2.67;;;;;;;;;;4992383;28;20378;-73
2022/06/21 11:31:01;;;;;;;6.47;2.50;;;27.30;96.90;;;;;;4995347;28;20050;-72
2022/06/21 11:33:34;;;;;;;12.35;3.10;;;;;;;;;;5010457;28;20107;-72
2022/06/21 11:36:11;;;;;;;18.90;3.20;;;27.30;97.40;;;;;;5012408;28;20022;-73
2022/06/21 11:38:56;;;;;;;4.90;2.15;;;;;;;;;;5004380;28;20038;-72
2022/06/21 11:44:42;;;;;;;4.30;2.15;;;;;;;;;;5011421;28;20505;-73
2022/06/21 11:47:11;;;;;;;7.25;2.72;;;27.20;97.40;;;;;;4999310;28;20426;-73
2022/06/21 11:49:48;;;;;;;5.28;3.08;;;27.40;97.60;;;;;;4993372;28;20022;-73
2022/06/21 11:52:29;;;;;;;5.50;2.47;;;27.70;72.10;;;;;;5002389;28;20037;-72
2022/06/21 11:55:23;;;;;;;4.18;2.67;;;28.00;71.50;;;;;;5011913;28;20033;-71
2022/06/21 11:58:00;;;;;;;4.72;2.60;;;28.30;71.70;;;;;;5011011;28;20430;-73
2022/06/21 12:00:42;;;;;;;6.72;2.90;;;28.80;69.90;;;;;;5006545;28;20141;-72
2022/06/21 12:03:17;;;;;;;5.18;2.92;;;29.00;70.00;;;;;;4998980;28;20061;-72
2022/06/21 12:05:55;;;;;;;7.18;3.20;;;28.90;69.60;;;;;;4984040;28;20679;-72
2022/06/21 12:08:27;;;;;;;6.03;2.63;;;28.60;70.00;;;;;;4991974;28;20030;-71
2022/06/21 12:11:11;;;;;;;6.78;2.72;;;28.50;70.90;;;;;;4994752;28;20045;-71
2022/06/21 12:13:50;;;;;;;3.65;2.70;;;28.40;71.00;;;;;;5004251;28;20133;-71
2022/06/21 12:16:44;;;;;;;5.30;2.75;;;28.30;71.00;;;;;;4992540;28;20026;-72
2022/06/21 12:19:19;;;;;;;6.57;2.85;;;28.30;71.60;;;;;;4999957;28;20066;-72
2022/06/21 12:22:07;;;;;;;3.58;2.58;;;28.30;72.00;;;;;;5007607;28;20036;-72
2022/06/21 12:24:33;;;;;;;5.18;3.17;;;28.50;71.60;;;;;;5011350;28;20060;-73
2022/06/21 12:26:59;;;;;;;4.80;2.75;;;28.50;71.40;;;;;;5011459;28;20061;-71
2022/06/21 12:29:25;;;;;;;4.40;2.58;;;28.50;71.30;;;;;;5010246;28;20037;-71
2022/06/21 12:32:00;;;;;;;7.30;2.92;;;28.40;72.00;;;;;;5005904;28;20435;-72
2022/06/21 12:34:42;;;;;;;7.60;3.47;;;28.50;71.90;;;;;;5004684;28;20568;-72
2022/06/21 12:37:33;;;;;;;8.60;3.38;;;28.60;71.20;;;;;;5009859;28;20373;-72
2022/06/21 12:40:20;;;;;;;6.38;3.08;;;28.60;71.10;;;;;;4999483;28;20430;-72
2022/06/21 12:43:17;;;;;;;6.20;2.70;;;28.50;71.50;;;;;;5009224;28;20124;-72
2022/06/21 12:45:54;;;;;;;4.30;3.03;;;28.20;71.80;;;;;;4942005;28;20053;-72
2022/06/21 12:48:41;;;;;;;10.77;3.65;;;28.10;72.40;;;;;;5010383;28;20479;-72
2022/06/21 12:51:18;;;;;;;3.83;2.42;;;27.90;72.90;;;;;;5008758;28;20029;-72
2022/06/21 12:54:10;;;;;;;14.35;3.55;;;27.70;73.50;;;;;;5002786;28;20030;-71
2022/06/21 12:57:03;;;;;;;6.43;3.33;;;27.60;74.20;;;;;;5006122;28;20037;-72
2022/06/21 12:59:49;;;;;;;10.45;3.05;;;27.50;74.00;;;;;;5010354;28;20034;-74
2022/06/21 13:02:28;;;;;;;9.32;3.50;;;27.40;74.40;;;;;;4999845;28;20129;-72
2022/06/21 13:05:26;;;;;;;7.68;3.50;;;27.40;74.70;;;;;;4992095;28;20046;-72
2022/06/21 13:08:23;;;;;;;5.53;2.50;;;27.60;74.20;;;;;;4992025;28;20034;-73
2022/06/21 13:11:02;;;;;;;7.07;3.03;;;27.90;74.00;;;;;;4991631;28;20039;-72
2022/06/21 13:13:31;;;;;;;5.30;2.70;;;28.30;73.00;;;;;;4996036;28;20033;-72
2022/06/21 13:16:07;;;;;;;6.55;3.15;;;28.30;72.80;;;;;;5014767;28;20030;-73
2022/06/21 13:19:03;;;;;;;4.85;3.15;;;28.30;73.60;;;;;;4996516;28;20100;-72
2022/06/21 13:21:28;;;;;;;5.05;3.53;;;28.70;72.90;;;;;;4995170;28;20034;-72
2022/06/21 13:24:41;;;;;;;5.63;3.05;;;28.80;72.50;;;;;;5014251;28;20045;-73
2022/06/21 13:27:28;;;;;;;5.35;3.30;;;28.70;72.70;;;;;;5003351;28;20066;-73
2022/06/21 13:30:30;;;;;;;7.88;3.70;;;28.60;72.60;;;;;;4994953;28;20125;-72
2022/06/21 13:33:08;;;;;;;5.45;2.90;;;28.60;73.00;;;;;;4947719;28;20038;-72
2022/06/21 13:36:09;;;;;;;6.95;3.47;;;28.50;72.70;;;;;;5009275;28;20037;-72
2022/06/21 13:38:52;;;;;;;8.10;3.33;;;28.30;73.20;;;;;;4999698;28;20479;-72
2022/06/21 13:44:28;;;;;;;8.20;3.53;;;28.60;72.90;;;;;;4999322;28;20037;-72
2022/06/21 13:47:10;;;;;;;6.78;3.10;;;28.90;72.80;;;;;;4999135;28;20096;-73
2022/06/21 13:49:43;;;;;;;6.05;3.30;;;29.20;72.50;;;;;;5011906;28;20039;-72
2022/06/21 13:52:40;;;;;;;8.88;3.35;;;29.50;71.20;;;;;;5015541;28;20034;-73
2022/06/21 13:55:20;;;;;;;6.25;2.78;;;29.70;72.00;;;;;;4992260;28;20046;-72
2022/06/21 13:57:56;;;;;;;7.07;3.63;;;30.00;70.30;;;;;;5003037;28;20022;-73
2022/06/21 14:01:05;;;;;;;6.25;3.30;;;30.20;69.20;;;;;;5009698;28;20041;-73
2022/06/21 14:03:52;;;;;;;4.37;3.40;;;30.00;70.10;;;;;;5001991;28;20043;-73
2022/06/21 14:06:47;;;;;;;4.13;3.17;;;30.00;69.20;;;;;;5003530;28;20065;-72